sensor_id;sensor_type;location;lat;lon;timestamp;temperature;humidity
36318;DHT22;33920;48.166;8.074;2022-07-05T00:00:55;19.50;71.60
36318;DHT22;33920;48.166;8.074;2022-07-05T00:03:20;19.60;71.60
36318;DHT22;33920;48.166;8.074;2022-07-05T00:05:46;20.10;72.00
36318;DHT22;33920;48.166;8.074;2022-07-05T00:08:12;19.50;71.40
36318;DHT22;33920;48.166;8.074;2022-07-05T00:10:37;19.80;71.50
36318;DHT22;33920;48.166;8.074;2022-07-05T00:13:04;19.40;71.90
36318;DHT22;33920;48.166;8.074;2022-07-05T00:15:30;19.30;72.00
36318;DHT22;33920;48.166;8.074;2022-07-05T00:20:26;19.30;71.70
36318;DHT22;33920;48.166;8.074;2022-07-05T00:22:51;19.20;72.20
36318;DHT22;33920;48.166;8.074;2022-07-05T00:27:32;19.10;71.70
36318;DHT22;33920;48.166;8.074;2022-07-05T00:32:24;19.10;71.60
36318;DHT22;33920;48.166;8.074;2022-07-05T00:34:50;19.10;72.30
36318;DHT22;33920;48.166;8.074;2022-07-05T00:39:35;19.00;71.10
36318;DHT22;33920;48.166;8.074;2022-07-05T00:42:02;19.00;71.80
36318;DHT22;33920;48.166;8.074;2022-07-05T00:44:30;18.90;70.60
36318;DHT22;33920;48.166;8.074;2022-07-05T00:46:57;19.00;71.40
36318;DHT22;33920;48.166;8.074;2022-07-05T00:49:22;18.80;71.90
36318;DHT22;33920;48.166;8.074;2022-07-05T00:51:48;18.70;70.90
36318;DHT22;33920;48.166;8.074;2022-07-05T00:58:48;18.60;71.00
36318;DHT22;33920;48.166;8.074;2022-07-05T01:03:45;18.50;71.80
36318;DHT22;33920;48.166;8.074;2022-07-05T01:06:12;18.90;72.90
36318;DHT22;33920;48.166;8.074;2022-07-05T01:08:40;17.70;71.90
36318;DHT22;33920;48.166;8.074;2022-07-05T01:11:07;18.70;70.20
36318;DHT22;33920;48.166;8.074;2022-07-05T01:13:34;18.80;71.10
36318;DHT22;33920;48.166;8.074;2022-07-05T01:16:01;18.60;70.90
36318;DHT22;33920;48.166;8.074;2022-07-05T01:18:28;18.50;71.20
36318;DHT22;33920;48.166;8.074;2022-07-05T01:20:54;18.50;71.50
36318;DHT22;33920;48.166;8.074;2022-07-05T01:23:20;18.50;71.70
36318;DHT22;33920;48.166;8.074;2022-07-05T01:25:47;18.50;71.80
36318;DHT22;33920;48.166;8.074;2022-07-05T01:28:13;19.00;72.00
36318;DHT22;33920;48.166;8.074;2022-07-05T01:30:40;18.40;71.20
36318;DHT22;33920;48.166;8.074;2022-07-05T01:33:07;18.40;71.20
36318;DHT22;33920;48.166;8.074;2022-07-05T01:35:34;19.20;71.30
36318;DHT22;33920;48.166;8.074;2022-07-05T01:42:32;18.30;68.80
36318;DHT22;33920;48.166;8.074;2022-07-05T01:44:58;18.50;68.70
36318;DHT22;33920;48.166;8.074;2022-07-05T01:47:24;19.50;68.90
36318;DHT22;33920;48.166;8.074;2022-07-05T01:49:53;18.20;69.10
36318;DHT22;33920;48.166;8.074;2022-07-05T01:52:24;18.60;69.60
36318;DHT22;33920;48.166;8.074;2022-07-05T01:54:54;18.10;69.60
36318;DHT22;33920;48.166;8.074;2022-07-05T01:57:20;18.30;70.30
36318;DHT22;33920;48.166;8.074;2022-07-05T01:59:45;18.80;70.10
36318;DHT22;33920;48.166;8.074;2022-07-05T02:02:11;18.20;69.60
36318;DHT22;33920;48.166;8.074;2022-07-05T02:04:37;17.60;69.60
36318;DHT22;33920;48.166;8.074;2022-07-05T02:07:07;17.90;69.70
36318;DHT22;33920;48.166;8.074;2022-07-05T02:09:33;18.00;69.80
36318;DHT22;33920;48.166;8.074;2022-07-05T02:11:59;18.00;71.00
36318;DHT22;33920;48.166;8.074;2022-07-05T02:14:25;17.90;70.70
36318;DHT22;33920;48.166;8.074;2022-07-05T02:16:51;17.90;71.80
36318;DHT22;33920;48.166;8.074;2022-07-05T02:21:51;18.00;71.20
36318;DHT22;33920;48.166;8.074;2022-07-05T02:24:16;18.50;72.50
36318;DHT22;33920;48.166;8.074;2022-07-05T02:29:05;18.10;71.40
36318;DHT22;33920;48.166;8.074;2022-07-05T02:33:57;18.10;71.10
36318;DHT22;33920;48.166;8.074;2022-07-05T02:36:23;18.10;71.60
36318;DHT22;33920;48.166;8.074;2022-07-05T02:38:49;19.10;72.90
36318;DHT22;33920;48.166;8.074;2022-07-05T02:41:17;19.30;72.10
36318;DHT22;33920;48.166;8.074;2022-07-05T02:46:16;18.10;69.90
36318;DHT22;33920;48.166;8.074;2022-07-05T02:48:41;18.10;71.40
36318;DHT22;33920;48.166;8.074;2022-07-05T02:51:09;18.60;72.50
36318;DHT22;33920;48.166;8.074;2022-07-05T02:53:37;19.00;73.20
36318;DHT22;33920;48.166;8.074;2022-07-05T02:56:03;18.60;73.00
36318;DHT22;33920;48.166;8.074;2022-07-05T02:58:29;17.20;71.50
36318;DHT22;33920;48.166;8.074;2022-07-05T03:00:57;18.30;72.90
36318;DHT22;33920;48.166;8.074;2022-07-05T03:03:22;18.00;70.70
36318;DHT22;33920;48.166;8.074;2022-07-05T03:08:14;17.60;70.40
36318;DHT22;33920;48.166;8.074;2022-07-05T03:10:50;17.60;71.10
36318;DHT22;33920;48.166;8.074;2022-07-05T03:13:16;17.90;73.00
36318;DHT22;33920;48.166;8.074;2022-07-05T03:15:41;17.80;73.00
36318;DHT22;33920;48.166;8.074;2022-07-05T03:18:10;17.50;71.50
36318;DHT22;33920;48.166;8.074;2022-07-05T03:20:35;17.50;72.60
36318;DHT22;33920;48.166;8.074;2022-07-05T03:23:01;17.50;72.50
36318;DHT22;33920;48.166;8.074;2022-07-05T03:25:29;18.30;72.80
36318;DHT22;33920;48.166;8.074;2022-07-05T03:27:55;17.40;72.90
36318;DHT22;33920;48.166;8.074;2022-07-05T03:30:20;18.30;72.80
36318;DHT22;33920;48.166;8.074;2022-07-05T03:43:43;17.30;71.60
36318;DHT22;33920;48.166;8.074;2022-07-05T03:48:34;17.20;72.30
36318;DHT22;33920;48.166;8.074;2022-07-05T03:51:01;17.30;72.30
36318;DHT22;33920;48.166;8.074;2022-07-05T03:58:56;17.20;72.10
36318;DHT22;33920;48.166;8.074;2022-07-05T04:01:31;16.80;73.00
36318;DHT22;33920;48.166;8.074;2022-07-05T04:03:56;17.20;72.60
36318;DHT22;33920;48.166;8.074;2022-07-05T04:06:22;17.10;72.80
36318;DHT22;33920;48.166;8.074;2022-07-05T04:08:48;18.40;73.10
36318;DHT22;33920;48.166;8.074;2022-07-05T04:13:37;17.10;71.90
36318;DHT22;33920;48.166;8.074;2022-07-05T04:26:11;17.00;72.80
36318;DHT22;33920;48.166;8.074;2022-07-05T04:30:53;17.00;72.00
36318;DHT22;33920;48.166;8.074;2022-07-05T04:33:18;18.50;74.00
36318;DHT22;33920;48.166;8.074;2022-07-05T04:35:44;17.00;72.70
36318;DHT22;33920;48.166;8.074;2022-07-05T04:38:09;18.40;73.30
36318;DHT22;33920;48.166;8.074;2022-07-05T04:40:35;18.00;73.20
36318;DHT22;33920;48.166;8.074;2022-07-05T04:43:01;17.10;72.90
36318;DHT22;33920;48.166;8.074;2022-07-05T04:45:29;17.20;72.70
36318;DHT22;33920;48.166;8.074;2022-07-05T04:47:55;17.60;72.90
36318;DHT22;33920;48.166;8.074;2022-07-05T04:50:21;17.70;73.40
36318;DHT22;33920;48.166;8.074;2022-07-05T04:52:46;17.00;73.40
36318;DHT22;33920;48.166;8.074;2022-07-05T04:55:12;17.80;73.80
36318;DHT22;33920;48.166;8.074;2022-07-05T04:57:42;17.50;73.20
36318;DHT22;33920;48.166;8.074;2022-07-05T05:12:41;16.90;73.10
36318;DHT22;33920;48.166;8.074;2022-07-05T05:15:17;17.00;74.10
36318;DHT22;33920;48.166;8.074;2022-07-05T06:06:56;18.40;74.20
36318;DHT22;33920;48.166;8.074;2022-07-05T06:11:47;18.60;71.40
36318;DHT22;33920;48.166;8.074;2022-07-05T06:14:13;18.80;72.60
36318;DHT22;33920;48.166;8.074;2022-07-05T06:19:16;19.60;70.20
36318;DHT22;33920;48.166;8.074;2022-07-05T06:43:46;33.70;38.60
36318;DHT22;33920;48.166;8.074;2022-07-05T06:56:00;32.90;37.50
36318;DHT22;33920;48.166;8.074;2022-07-05T07:35:59;35.90;31.60
36318;DHT22;33920;48.166;8.074;2022-07-05T07:38:29;35.70;32.70
36318;DHT22;33920;48.166;8.074;2022-07-05T07:40:58;35.40;36.90
36318;DHT22;33920;48.166;8.074;2022-07-05T07:43:25;35.70;32.20
36318;DHT22;33920;48.166;8.074;2022-07-05T07:45:51;35.60;35.20
36318;DHT22;33920;48.166;8.074;2022-07-05T07:48:16;35.60;35.00
36318;DHT22;33920;48.166;8.074;2022-07-05T07:50:42;35.10;33.50
36318;DHT22;33920;48.166;8.074;2022-07-05T07:53:07;35.30;34.20
36318;DHT22;33920;48.166;8.074;2022-07-05T07:55:33;35.00;33.50
36318;DHT22;33920;48.166;8.074;2022-07-05T07:57:59;34.80;35.40
36318;DHT22;33920;48.166;8.074;2022-07-05T08:00:24;34.60;36.20
36318;DHT22;33920;48.166;8.074;2022-07-05T08:02:50;34.60;36.30
36318;DHT22;33920;48.166;8.074;2022-07-05T08:05:16;34.60;36.60
36318;DHT22;33920;48.166;8.074;2022-07-05T08:07:41;34.60;35.80
36318;DHT22;33920;48.166;8.074;2022-07-05T08:12:39;34.60;34.70
36318;DHT22;33920;48.166;8.074;2022-07-05T08:15:05;34.40;35.80
36318;DHT22;33920;48.166;8.074;2022-07-05T08:17:33;34.20;34.10
36318;DHT22;33920;48.166;8.074;2022-07-05T08:19:58;34.10;36.70
36318;DHT22;33920;48.166;8.074;2022-07-05T08:22:43;34.10;36.60
36318;DHT22;33920;48.166;8.074;2022-07-05T08:25:08;34.10;36.50
36318;DHT22;33920;48.166;8.074;2022-07-05T08:27:34;34.20;37.80
36318;DHT22;33920;48.166;8.074;2022-07-05T09:34:38;34.50;37.60
36318;DHT22;33920;48.166;8.074;2022-07-05T09:37:04;35.40;35.70
36318;DHT22;33920;48.166;8.074;2022-07-05T09:42:18;36.50;34.70
36318;DHT22;33920;48.166;8.074;2022-07-05T09:44:47;36.50;35.00
36318;DHT22;33920;48.166;8.074;2022-07-05T09:47:15;36.20;35.10
36318;DHT22;33920;48.166;8.074;2022-07-05T10:25:19;29.10;35.80
36318;DHT22;33920;48.166;8.074;2022-07-05T10:42:46;28.00;38.80
36318;DHT22;33920;48.166;8.074;2022-07-05T10:45:54;27.10;38.00
36318;DHT22;33920;48.166;8.074;2022-07-05T10:48:27;27.90;39.60
36318;DHT22;33920;48.166;8.074;2022-07-05T10:51:02;27.40;40.00
36318;DHT22;33920;48.166;8.074;2022-07-05T16:49:06;25.70;39.00
36318;DHT22;33920;48.166;8.074;2022-07-05T16:51:53;25.70;39.40
36318;DHT22;33920;48.166;8.074;2022-07-05T16:54:48;25.70;41.10
36318;DHT22;33920;48.166;8.074;2022-07-05T17:30:35;25.30;40.40
36318;DHT22;33920;48.166;8.074;2022-07-05T17:35:52;25.20;42.10
36318;DHT22;33920;48.166;8.074;2022-07-05T17:59:00;25.00;41.40
36318;DHT22;33920;48.166;8.074;2022-07-05T18:10:30;24.90;42.40
36318;DHT22;33920;48.166;8.074;2022-07-05T18:22:21;24.70;41.80
36318;DHT22;33920;48.166;8.074;2022-07-05T18:25:18;24.00;42.60
36318;DHT22;33920;48.166;8.074;2022-07-05T18:27:57;24.60;43.00
36318;DHT22;33920;48.166;8.074;2022-07-05T18:31:04;25.00;45.60
36318;DHT22;33920;48.166;8.074;2022-07-05T18:34:01;23.00;44.20
36318;DHT22;33920;48.166;8.074;2022-07-05T18:36:27;24.50;46.10
36318;DHT22;33920;48.166;8.074;2022-07-05T18:38:55;25.20;47.80
36318;DHT22;33920;48.166;8.074;2022-07-05T18:41:32;24.10;48.70
36318;DHT22;33920;48.166;8.074;2022-07-05T18:43:57;24.20;47.70
36318;DHT22;33920;48.166;8.074;2022-07-05T18:46:31;23.50;47.50
36318;DHT22;33920;48.166;8.074;2022-07-05T18:49:00;24.00;48.40
36318;DHT22;33920;48.166;8.074;2022-07-05T20:12:25;21.80;54.30
36318;DHT22;33920;48.166;8.074;2022-07-05T20:14:53;21.80;54.30
36318;DHT22;33920;48.166;8.074;2022-07-05T20:17:19;21.00;52.60
36318;DHT22;33920;48.166;8.074;2022-07-05T20:19:45;21.70;53.70
36318;DHT22;33920;48.166;8.074;2022-07-05T20:22:10;22.00;55.00
36318;DHT22;33920;48.166;8.074;2022-07-05T20:24:38;21.90;55.10
36318;DHT22;33920;48.166;8.074;2022-07-05T20:27:04;21.60;54.20
36318;DHT22;33920;48.166;8.074;2022-07-05T20:29:30;21.60;54.70
36318;DHT22;33920;48.166;8.074;2022-07-05T20:37:06;21.50;52.80
36318;DHT22;33920;48.166;8.074;2022-07-05T20:39:43;22.40;55.50
36318;DHT22;33920;48.166;8.074;2022-07-05T20:44:47;21.40;55.20
36318;DHT22;33920;48.166;8.074;2022-07-05T20:59:15;21.00;56.40
36318;DHT22;33920;48.166;8.074;2022-07-05T21:09:13;20.90;57.20
36318;DHT22;33920;48.166;8.074;2022-07-05T22:22:29;19.80;58.00
36318;DHT22;33920;48.166;8.074;2022-07-05T22:24:54;21.00;60.10
36318;DHT22;33920;48.166;8.074;2022-07-05T22:27:20;21.10;59.80
36318;DHT22;33920;48.166;8.074;2022-07-05T22:29:46;20.70;60.30
36318;DHT22;33920;48.166;8.074;2022-07-05T22:36:55;19.80;59.20
36318;DHT22;33920;48.166;8.074;2022-07-05T22:41:50;19.70;59.20
36318;DHT22;33920;48.166;8.074;2022-07-05T22:44:16;19.60;60.60
36318;DHT22;33920;48.166;8.074;2022-07-05T22:58:22;19.50;59.80
36318;DHT22;33920;48.166;8.074;2022-07-05T23:00:48;19.50;60.60
36318;DHT22;33920;48.166;8.074;2022-07-05T23:03:13;19.40;60.60
36318;DHT22;33920;48.166;8.074;2022-07-05T23:05:39;20.60;60.00
36318;DHT22;33920;48.166;8.074;2022-07-05T23:10:36;19.40;59.00
36318;DHT22;33920;48.166;8.074;2022-07-05T23:13:02;19.30;60.60
36318;DHT22;33920;48.166;8.074;2022-07-05T23:15:27;19.30;61.20
36318;DHT22;33920;48.166;8.074;2022-07-05T23:17:53;19.30;61.30
36318;DHT22;33920;48.166;8.074;2022-07-05T23:20:18;18.90;61.10
36318;DHT22;33920;48.166;8.074;2022-07-05T23:22:44;19.60;61.90
36318;DHT22;33920;48.166;8.074;2022-07-05T23:25:10;19.20;61.40
36318;DHT22;33920;48.166;8.074;2022-07-05T23:27:35;19.20;61.30
36318;DHT22;33920;48.166;8.074;2022-07-05T23:30:03;20.20;61.80
36318;DHT22;33920;48.166;8.074;2022-07-05T23:32:30;19.10;61.30
36318;DHT22;33920;48.166;8.074;2022-07-05T23:34:55;19.70;62.40
36318;DHT22;33920;48.166;8.074;2022-07-05T23:37:22;20.10;62.60
36318;DHT22;33920;48.166;8.074;2022-07-05T23:39:48;19.10;62.00
36318;DHT22;33920;48.166;8.074;2022-07-05T23:42:14;18.90;62.10
36318;DHT22;33920;48.166;8.074;2022-07-05T23:44:40;19.90;63.20
36318;DHT22;33920;48.166;8.074;2022-07-05T23:52:01;18.90;61.90
36318;DHT22;33920;48.166;8.074;2022-07-05T23:54:27;18.80;62.70
36318;DHT22;33920;48.166;8.074;2022-07-05T23:56:53;19.80;64.00
